sensor_id;sensor_type;location;lat;lon;timestamp;pressure;altitude;pressure_sealevel;temperature;humidity
11806;BME280;5960;42.602;23.482;2022-09-28T00:00:19;92459.06;;;14.55;83.36
11806;BME280;5960;42.602;23.482;2022-09-28T00:02:45;92454.34;;;14.57;82.81
11806;BME280;5960;42.602;23.482;2022-09-28T00:05:13;92453.84;;;14.60;81.51
11806;BME280;5960;42.602;23.482;2022-09-28T00:07:41;92444.72;;;14.39;82.02
11806;BME280;5960;42.602;23.482;2022-09-28T00:10:09;92433.66;;;14.42;81.81
11806;BME280;5960;42.602;23.482;2022-09-28T00:12:36;92430.03;;;14.32;82.52
11806;BME280;5960;42.602;23.482;2022-09-28T00:15:04;92425.50;;;14.44;82.26
11806;BME280;5960;42.602;23.482;2022-09-28T00:17:32;92424.81;;;14.37;82.45
11806;BME280;5960;42.602;23.482;2022-09-28T00:20:00;92432.91;;;14.30;82.74
11806;BME280;5960;42.602;23.482;2022-09-28T00:22:29;92421.44;;;14.24;83.17
11806;BME280;5960;42.602;23.482;2022-09-28T00:24:57;92416.94;;;14.25;81.24
11806;BME280;5960;42.602;23.482;2022-09-28T00:27:24;92416.81;;;14.49;80.01
11806;BME280;5960;42.602;23.482;2022-09-28T00:29:51;92421.84;;;14.79;77.43
11806;BME280;5960;42.602;23.482;2022-09-28T00:32:18;92411.81;;;14.98;77.13
11806;BME280;5960;42.602;23.482;2022-09-28T00:34:45;92410.28;;;15.19;76.25
11806;BME280;5960;42.602;23.482;2022-09-28T00:37:13;92413.38;;;15.33;74.82
11806;BME280;5960;42.602;23.482;2022-09-28T00:39:40;92416.75;;;15.29;76.31
11806;BME280;5960;42.602;23.482;2022-09-28T00:42:12;92411.81;;;15.15;77.42
11806;BME280;5960;42.602;23.482;2022-09-28T00:44:46;92417.13;;;15.15;76.99
11806;BME280;5960;42.602;23.482;2022-09-28T00:47:41;92409.22;;;15.20;77.12
11806;BME280;5960;42.602;23.482;2022-09-28T00:50:18;92413.81;;;15.25;76.16
11806;BME280;5960;42.602;23.482;2022-09-28T00:52:48;92411.38;;;15.24;77.22
11806;BME280;5960;42.602;23.482;2022-09-28T00:55:21;92415.06;;;15.23;77.54
11806;BME280;5960;42.602;23.482;2022-09-28T00:57:51;92417.91;;;15.16;78.21
11806;BME280;5960;42.602;23.482;2022-09-28T01:00:19;92413.34;;;15.11;79.55
11806;BME280;5960;42.602;23.482;2022-09-28T01:02:46;92417.22;;;15.03;79.64
11806;BME280;5960;42.602;23.482;2022-09-28T01:05:14;92416.88;;;14.83;80.77
11806;BME280;5960;42.602;23.482;2022-09-28T01:07:43;92416.06;;;14.82;80.80
11806;BME280;5960;42.602;23.482;2022-09-28T01:10:12;92419.22;;;14.96;78.12
11806;BME280;5960;42.602;23.482;2022-09-28T01:12:39;92421.69;;;15.20;76.74
11806;BME280;5960;42.602;23.482;2022-09-28T01:15:08;92417.50;;;15.24;76.65
11806;BME280;5960;42.602;23.482;2022-09-28T01:17:47;92422.06;;;15.29;77.22
11806;BME280;5960;42.602;23.482;2022-09-28T01:20:48;92423.69;;;15.30;77.27
11806;BME280;5960;42.602;23.482;2022-09-28T01:23:49;92420.47;;;15.28;77.17
11806;BME280;5960;42.602;23.482;2022-09-28T01:26:49;92420.84;;;15.37;77.01
11806;BME280;5960;42.602;23.482;2022-09-28T01:29:28;92426.06;;;15.31;76.96
11806;BME280;5960;42.602;23.482;2022-09-28T01:32:05;92425.59;;;15.34;78.51
11806;BME280;5960;42.602;23.482;2022-09-28T01:34:40;92435.03;;;15.25;78.74
11806;BME280;5960;42.602;23.482;2022-09-28T01:37:12;92432.78;;;15.17;78.41
11806;BME280;5960;42.602;23.482;2022-09-28T01:39:42;92422.50;;;15.03;78.77
11806;BME280;5960;42.602;23.482;2022-09-28T01:42:16;92417.44;;;15.02;78.02
11806;BME280;5960;42.602;23.482;2022-09-28T01:44:48;92418.00;;;15.04;78.08
11806;BME280;5960;42.602;23.482;2022-09-28T01:47:19;92435.81;;;15.09;76.81
11806;BME280;5960;42.602;23.482;2022-09-28T01:49:51;92431.47;;;15.37;75.53
11806;BME280;5960;42.602;23.482;2022-09-28T01:52:23;92426.78;;;15.44;75.33
11806;BME280;5960;42.602;23.482;2022-09-28T01:54:55;92424.72;;;15.46;74.18
11806;BME280;5960;42.602;23.482;2022-09-28T01:57:30;92429.59;;;15.54;74.39
11806;BME280;5960;42.602;23.482;2022-09-28T02:00:03;92435.97;;;15.53;74.71
11806;BME280;5960;42.602;23.482;2022-09-28T02:02:33;92439.88;;;15.50;75.80
11806;BME280;5960;42.602;23.482;2022-09-28T02:05:05;92453.03;;;15.40;76.93
11806;BME280;5960;42.602;23.482;2022-09-28T02:07:37;92445.56;;;15.37;77.22
11806;BME280;5960;42.602;23.482;2022-09-28T02:10:07;92456.56;;;15.12;77.92
11806;BME280;5960;42.602;23.482;2022-09-28T02:12:41;92448.53;;;14.89;78.93
11806;BME280;5960;42.602;23.482;2022-09-28T02:15:16;92450.78;;;14.81;79.81
11806;BME280;5960;42.602;23.482;2022-09-28T02:17:44;92456.34;;;14.67;80.44
11806;BME280;5960;42.602;23.482;2022-09-28T02:20:11;92457.34;;;14.61;80.71
11806;BME280;5960;42.602;23.482;2022-09-28T02:22:40;92451.69;;;14.57;81.15
11806;BME280;5960;42.602;23.482;2022-09-28T02:25:10;92456.19;;;14.57;80.91
11806;BME280;5960;42.602;23.482;2022-09-28T02:27:42;92463.47;;;14.50;81.41
11806;BME280;5960;42.602;23.482;2022-09-28T02:30:11;92453.34;;;14.18;82.98
11806;BME280;5960;42.602;23.482;2022-09-28T02:32:41;92443.47;;;14.13;83.63
11806;BME280;5960;42.602;23.482;2022-09-28T02:35:11;92453.47;;;14.11;83.58
11806;BME280;5960;42.602;23.482;2022-09-28T02:37:39;92448.66;;;14.08;84.32
11806;BME280;5960;42.602;23.482;2022-09-28T02:40:12;92449.00;;;14.11;84.34
11806;BME280;5960;42.602;23.482;2022-09-28T02:42:46;92448.00;;;14.01;84.67
11806;BME280;5960;42.602;23.482;2022-09-28T02:45:28;92455.84;;;13.95;85.19
11806;BME280;5960;42.602;23.482;2022-09-28T02:48:07;92437.41;;;14.01;85.59
11806;BME280;5960;42.602;23.482;2022-09-28T02:50:43;92443.59;;;14.06;84.79
11806;BME280;5960;42.602;23.482;2022-09-28T02:53:34;92442.81;;;13.94;85.48
11806;BME280;5960;42.602;23.482;2022-09-28T02:56:18;92435.44;;;13.96;85.25
11806;BME280;5960;42.602;23.482;2022-09-28T02:58:55;92434.88;;;13.94;85.21
11806;BME280;5960;42.602;23.482;2022-09-28T03:01:28;92429.97;;;13.86;85.25
11806;BME280;5960;42.602;23.482;2022-09-28T03:04:06;92446.31;;;13.82;85.65
11806;BME280;5960;42.602;23.482;2022-09-28T03:06:39;92431.16;;;13.78;85.95
11806;BME280;5960;42.602;23.482;2022-09-28T03:09:17;92437.38;;;13.60;86.85
11806;BME280;5960;42.602;23.482;2022-09-28T03:11:48;92448.56;;;13.50;87.68
11806;BME280;5960;42.602;23.482;2022-09-28T03:14:18;92450.88;;;13.58;87.66
11806;BME280;5960;42.602;23.482;2022-09-28T03:16:45;92449.59;;;13.61;87.73
11806;BME280;5960;42.602;23.482;2022-09-28T03:19:13;92448.91;;;13.53;88.50
11806;BME280;5960;42.602;23.482;2022-09-28T03:21:41;92466.97;;;13.57;87.69
11806;BME280;5960;42.602;23.482;2022-09-28T03:24:08;92469.72;;;13.50;87.92
11806;BME280;5960;42.602;23.482;2022-09-28T03:26:35;92474.13;;;13.44;88.52
11806;BME280;5960;42.602;23.482;2022-09-28T03:29:02;92477.09;;;13.48;88.25
11806;BME280;5960;42.602;23.482;2022-09-28T03:31:30;92469.38;;;13.58;87.85
11806;BME280;5960;42.602;23.482;2022-09-28T03:33:57;92477.34;;;13.46;87.84
11806;BME280;5960;42.602;23.482;2022-09-28T03:36:23;92472.94;;;13.40;88.10
11806;BME280;5960;42.602;23.482;2022-09-28T03:38:51;92471.31;;;13.39;88.10
11806;BME280;5960;42.602;23.482;2022-09-28T03:41:19;92477.84;;;13.24;88.67
11806;BME280;5960;42.602;23.482;2022-09-28T03:43:46;92476.47;;;13.34;88.55
11806;BME280;5960;42.602;23.482;2022-09-28T03:46:13;92485.16;;;13.41;88.51
11806;BME280;5960;42.602;23.482;2022-09-28T03:48:41;92477.56;;;13.45;88.37
11806;BME280;5960;42.602;23.482;2022-09-28T03:51:09;92480.03;;;13.39;88.62
11806;BME280;5960;42.602;23.482;2022-09-28T03:53:37;92483.66;;;13.45;88.24
11806;BME280;5960;42.602;23.482;2022-09-28T03:56:05;92482.25;;;13.43;88.67
11806;BME280;5960;42.602;23.482;2022-09-28T03:58:32;92493.66;;;13.43;89.25
11806;BME280;5960;42.602;23.482;2022-09-28T04:01:04;92482.72;;;13.51;89.38
11806;BME280;5960;42.602;23.482;2022-09-28T04:03:32;92481.34;;;13.61;88.81
11806;BME280;5960;42.602;23.482;2022-09-28T04:06:00;92480.75;;;13.59;88.28
11806;BME280;5960;42.602;23.482;2022-09-28T04:08:27;92488.81;;;13.64;88.28
11806;BME280;5960;42.602;23.482;2022-09-28T04:10:55;92479.59;;;13.54;88.20
11806;BME280;5960;42.602;23.482;2022-09-28T04:13:22;92480.19;;;13.57;88.17
11806;BME280;5960;42.602;23.482;2022-09-28T04:15:52;92468.56;;;13.58;88.20
11806;BME280;5960;42.602;23.482;2022-09-28T04:18:20;92482.50;;;13.65;88.19
11806;BME280;5960;42.602;23.482;2022-09-28T04:20:47;92479.00;;;13.76;88.54
11806;BME280;5960;42.602;23.482;2022-09-28T04:23:15;92468.28;;;13.83;87.54
11806;BME280;5960;42.602;23.482;2022-09-28T04:25:42;92478.34;;;13.81;87.67
11806;BME280;5960;42.602;23.482;2022-09-28T04:28:12;92465.44;;;13.84;87.18
11806;BME280;5960;42.602;23.482;2022-09-28T04:30:56;92471.44;;;13.68;87.12
11806;BME280;5960;42.602;23.482;2022-09-28T04:33:22;92455.06;;;13.71;87.18
11806;BME280;5960;42.602;23.482;2022-09-28T04:35:49;92462.78;;;13.84;86.33
11806;BME280;5960;42.602;23.482;2022-09-28T04:38:17;92453.97;;;13.96;86.34
11806;BME280;5960;42.602;23.482;2022-09-28T04:40:44;92465.16;;;13.98;85.90
11806;BME280;5960;42.602;23.482;2022-09-28T04:43:10;92460.22;;;14.02;85.80
11806;BME280;5960;42.602;23.482;2022-09-28T04:45:37;92470.19;;;14.11;85.94
11806;BME280;5960;42.602;23.482;2022-09-28T04:48:05;92471.22;;;14.10;86.29
11806;BME280;5960;42.602;23.482;2022-09-28T04:50:32;92483.78;;;14.03;86.97
11806;BME280;5960;42.602;23.482;2022-09-28T04:52:59;92480.97;;;14.22;86.19
11806;BME280;5960;42.602;23.482;2022-09-28T04:55:27;92483.72;;;14.27;85.05
11806;BME280;5960;42.602;23.482;2022-09-28T04:57:56;92480.97;;;14.22;85.30
11806;BME280;5960;42.602;23.482;2022-09-28T05:00:27;92468.97;;;14.31;85.24
11806;BME280;5960;42.602;23.482;2022-09-28T05:02:53;92477.34;;;14.40;84.34
11806;BME280;5960;42.602;23.482;2022-09-28T05:05:20;92478.06;;;14.35;85.03
11806;BME280;5960;42.602;23.482;2022-09-28T05:07:47;92481.00;;;14.51;85.10
11806;BME280;5960;42.602;23.482;2022-09-28T05:10:14;92480.94;;;14.63;84.76
11806;BME280;5960;42.602;23.482;2022-09-28T05:12:42;92469.41;;;14.69;84.66
11806;BME280;5960;42.602;23.482;2022-09-28T05:15:09;92473.28;;;14.78;84.89
11806;BME280;5960;42.602;23.482;2022-09-28T05:17:36;92480.03;;;14.86;83.65
11806;BME280;5960;42.602;23.482;2022-09-28T05:20:03;92474.59;;;14.93;83.72
11806;BME280;5960;42.602;23.482;2022-09-28T05:22:31;92489.78;;;14.97;84.01
11806;BME280;5960;42.602;23.482;2022-09-28T05:24:58;92493.88;;;15.05;82.76
11806;BME280;5960;42.602;23.482;2022-09-28T05:27:25;92497.50;;;15.16;82.11
11806;BME280;5960;42.602;23.482;2022-09-28T05:29:53;92499.84;;;15.29;81.90
11806;BME280;5960;42.602;23.482;2022-09-28T05:32:20;92495.63;;;15.33;81.37
11806;BME280;5960;42.602;23.482;2022-09-28T05:34:46;92500.81;;;15.40;81.59
11806;BME280;5960;42.602;23.482;2022-09-28T05:37:13;92493.06;;;15.39;81.27
11806;BME280;5960;42.602;23.482;2022-09-28T05:39:40;92485.34;;;15.54;81.51
11806;BME280;5960;42.602;23.482;2022-09-28T05:42:07;92490.00;;;15.64;82.18
11806;BME280;5960;42.602;23.482;2022-09-28T05:44:33;92492.59;;;15.81;81.33
11806;BME280;5960;42.602;23.482;2022-09-28T05:47:03;92496.56;;;15.96;81.45
11806;BME280;5960;42.602;23.482;2022-09-28T05:49:29;92511.16;;;16.15;80.61
11806;BME280;5960;42.602;23.482;2022-09-28T05:51:56;92506.34;;;16.34;79.86
11806;BME280;5960;42.602;23.482;2022-09-28T05:54:23;92516.94;;;16.57;78.84
11806;BME280;5960;42.602;23.482;2022-09-28T05:56:51;92512.53;;;16.67;78.34
11806;BME280;5960;42.602;23.482;2022-09-28T05:59:17;92509.72;;;16.79;78.35
11806;BME280;5960;42.602;23.482;2022-09-28T06:01:44;92504.53;;;16.90;77.65
11806;BME280;5960;42.602;23.482;2022-09-28T06:04:12;92512.59;;;17.00;75.69
11806;BME280;5960;42.602;23.482;2022-09-28T06:06:40;92504.19;;;17.08;75.90
11806;BME280;5960;42.602;23.482;2022-09-28T06:09:07;92504.34;;;17.29;75.64
11806;BME280;5960;42.602;23.482;2022-09-28T06:11:34;92502.75;;;17.28;75.04
11806;BME280;5960;42.602;23.482;2022-09-28T06:14:01;92512.16;;;17.41;75.12
11806;BME280;5960;42.602;23.482;2022-09-28T06:16:29;92502.66;;;17.55;75.24
11806;BME280;5960;42.602;23.482;2022-09-28T06:18:56;92504.50;;;17.87;74.92
11806;BME280;5960;42.602;23.482;2022-09-28T06:21:24;92514.25;;;18.19;74.06
11806;BME280;5960;42.602;23.482;2022-09-28T06:23:51;92511.16;;;18.38;73.35
11806;BME280;5960;42.602;23.482;2022-09-28T06:26:17;92515.22;;;18.61;73.13
11806;BME280;5960;42.602;23.482;2022-09-28T06:28:44;92514.84;;;18.96;71.71
11806;BME280;5960;42.602;23.482;2022-09-28T06:31:11;92509.25;;;19.07;70.05
11806;BME280;5960;42.602;23.482;2022-09-28T06:33:38;92509.78;;;19.25;68.25
11806;BME280;5960;42.602;23.482;2022-09-28T06:36:07;92513.53;;;19.29;68.90
11806;BME280;5960;42.602;23.482;2022-09-28T06:38:35;92527.94;;;19.59;68.90
11806;BME280;5960;42.602;23.482;2022-09-28T06:41:02;92542.66;;;19.82;68.39
11806;BME280;5960;42.602;23.482;2022-09-28T06:43:30;92536.25;;;19.89;66.74
11806;BME280;5960;42.602;23.482;2022-09-28T06:45:58;92553.34;;;19.93;66.75
11806;BME280;5960;42.602;23.482;2022-09-28T06:48:25;92546.66;;;19.80;64.89
11806;BME280;5960;42.602;23.482;2022-09-28T06:50:51;92546.66;;;19.64;66.20
11806;BME280;5960;42.602;23.482;2022-09-28T06:53:18;92537.03;;;19.58;66.25
11806;BME280;5960;42.602;23.482;2022-09-28T06:55:47;92538.91;;;19.83;67.24
11806;BME280;5960;42.602;23.482;2022-09-28T06:58:16;92531.38;;;20.17;66.99
11806;BME280;5960;42.602;23.482;2022-09-28T07:00:44;92536.13;;;20.45;66.44
11806;BME280;5960;42.602;23.482;2022-09-28T07:03:13;92538.69;;;20.82;65.74
11806;BME280;5960;42.602;23.482;2022-09-28T07:05:42;92530.81;;;21.01;65.02
11806;BME280;5960;42.602;23.482;2022-09-28T07:08:09;92530.59;;;20.92;63.89
11806;BME280;5960;42.602;23.482;2022-09-28T07:10:40;92538.75;;;20.56;65.44
11806;BME280;5960;42.602;23.482;2022-09-28T07:13:09;92538.16;;;20.80;66.40
11806;BME280;5960;42.602;23.482;2022-09-28T07:15:36;92541.16;;;21.18;65.38
11806;BME280;5960;42.602;23.482;2022-09-28T07:18:04;92539.03;;;21.55;63.41
11806;BME280;5960;42.602;23.482;2022-09-28T07:20:33;92531.09;;;21.79;62.24
11806;BME280;5960;42.602;23.482;2022-09-28T07:23:02;92530.09;;;21.99;60.14
11806;BME280;5960;42.602;23.482;2022-09-28T07:25:29;92533.44;;;22.15;60.00
11806;BME280;5960;42.602;23.482;2022-09-28T07:27:57;92534.00;;;22.36;60.25
11806;BME280;5960;42.602;23.482;2022-09-28T07:30:27;92547.44;;;22.66;59.76
11806;BME280;5960;42.602;23.482;2022-09-28T07:32:57;92554.38;;;22.91;58.86
11806;BME280;5960;42.602;23.482;2022-09-28T07:35:24;92556.41;;;23.19;57.48
11806;BME280;5960;42.602;23.482;2022-09-28T07:37:56;92546.88;;;23.51;57.12
11806;BME280;5960;42.602;23.482;2022-09-28T07:40:23;92556.16;;;23.58;56.26
11806;BME280;5960;42.602;23.482;2022-09-28T07:43:07;92556.41;;;23.76;55.68
11806;BME280;5960;42.602;23.482;2022-09-28T07:45:35;92555.38;;;23.91;55.39
11806;BME280;5960;42.602;23.482;2022-09-28T07:48:02;92554.09;;;24.36;54.14
11806;BME280;5960;42.602;23.482;2022-09-28T07:50:29;92558.59;;;24.54;53.21
11806;BME280;5960;42.602;23.482;2022-09-28T07:52:56;92550.25;;;24.70;49.42
11806;BME280;5960;42.602;23.482;2022-09-28T07:55:23;92546.53;;;24.38;50.45
11806;BME280;5960;42.602;23.482;2022-09-28T07:57:53;92547.84;;;24.68;50.91
11806;BME280;5960;42.602;23.482;2022-09-28T08:00:20;92554.66;;;24.93;51.00
11806;BME280;5960;42.602;23.482;2022-09-28T08:02:48;92559.78;;;25.32;48.60
11806;BME280;5960;42.602;23.482;2022-09-28T08:05:15;92561.69;;;25.68;47.97
11806;BME280;5960;42.602;23.482;2022-09-28T08:07:42;92567.03;;;26.05;47.24
11806;BME280;5960;42.602;23.482;2022-09-28T08:10:09;92572.25;;;26.24;46.31
11806;BME280;5960;42.602;23.482;2022-09-28T08:12:36;92573.16;;;26.42;45.88
11806;BME280;5960;42.602;23.482;2022-09-28T08:15:05;92574.66;;;26.57;46.07
11806;BME280;5960;42.602;23.482;2022-09-28T08:17:35;92574.84;;;26.61;43.56
11806;BME280;5960;42.602;23.482;2022-09-28T08:20:04;92581.59;;;26.18;45.32
11806;BME280;5960;42.602;23.482;2022-09-28T08:22:48;92580.41;;;25.87;46.17
11806;BME280;5960;42.602;23.482;2022-09-28T08:25:15;92571.84;;;25.48;44.94
11806;BME280;5960;42.602;23.482;2022-09-28T08:27:41;92579.47;;;25.92;46.22
11806;BME280;5960;42.602;23.482;2022-09-28T08:30:09;92571.13;;;26.48;45.06
11806;BME280;5960;42.602;23.482;2022-09-28T08:32:36;92572.66;;;26.71;41.75
11806;BME280;5960;42.602;23.482;2022-09-28T08:35:04;92577.88;;;26.99;43.61
11806;BME280;5960;42.602;23.482;2022-09-28T08:37:31;92562.28;;;27.63;42.49
11806;BME280;5960;42.602;23.482;2022-09-28T08:39:58;92562.91;;;27.77;42.13
11806;BME280;5960;42.602;23.482;2022-09-28T08:42:32;92567.66;;;28.07;41.61
11806;BME280;5960;42.602;23.482;2022-09-28T08:45:05;92557.31;;;28.00;41.39
11806;BME280;5960;42.602;23.482;2022-09-28T08:47:36;92557.44;;;28.04;42.72
11806;BME280;5960;42.602;23.482;2022-09-28T08:50:28;92558.75;;;28.72;40.87
11806;BME280;5960;42.602;23.482;2022-09-28T08:53:00;92565.25;;;29.18;39.00
11806;BME280;5960;42.602;23.482;2022-09-28T08:55:29;92566.06;;;29.49;39.38
11806;BME280;5960;42.602;23.482;2022-09-28T08:58:01;92559.50;;;29.71;37.63
11806;BME280;5960;42.602;23.482;2022-09-28T09:00:32;92563.69;;;29.68;38.71
11806;BME280;5960;42.602;23.482;2022-09-28T09:03:04;92564.66;;;29.42;39.49
11806;BME280;5960;42.602;23.482;2022-09-28T09:05:45;92554.53;;;29.52;38.81
11806;BME280;5960;42.602;23.482;2022-09-28T09:08:27;92554.47;;;29.82;39.07
11806;BME280;5960;42.602;23.482;2022-09-28T09:11:01;92547.44;;;29.38;39.79
11806;BME280;5960;42.602;23.482;2022-09-28T09:16:50;92559.63;;;27.14;44.70
11806;BME280;5960;42.602;23.482;2022-09-28T09:19:34;92558.19;;;26.36;45.98
11806;BME280;5960;42.602;23.482;2022-09-28T09:22:11;92553.59;;;26.68;46.18
11806;BME280;5960;42.602;23.482;2022-09-28T09:24:47;92550.75;;;27.40;45.20
11806;BME280;5960;42.602;23.482;2022-09-28T09:27:28;92550.72;;;28.36;43.21
11806;BME280;5960;42.602;23.482;2022-09-28T09:30:07;92554.88;;;29.20;40.73
11806;BME280;5960;42.602;23.482;2022-09-28T09:32:53;92556.59;;;29.55;38.20
11806;BME280;5960;42.602;23.482;2022-09-28T09:35:30;92559.75;;;29.78;38.59
11806;BME280;5960;42.602;23.482;2022-09-28T09:38:17;92555.03;;;30.30;37.19
11806;BME280;5960;42.602;23.482;2022-09-28T09:40:58;92554.56;;;30.61;37.89
11806;BME280;5960;42.602;23.482;2022-09-28T09:46:33;92543.03;;;31.27;35.80
11806;BME280;5960;42.602;23.482;2022-09-28T09:49:05;92534.28;;;31.46;36.96
11806;BME280;5960;42.602;23.482;2022-09-28T09:51:40;92541.13;;;31.27;35.37
11806;BME280;5960;42.602;23.482;2022-09-28T09:54:17;92529.09;;;31.28;36.03
11806;BME280;5960;42.602;23.482;2022-09-28T09:56:49;92538.50;;;31.43;36.36
11806;BME280;5960;42.602;23.482;2022-09-28T09:59:21;92533.69;;;31.65;35.79
11806;BME280;5960;42.602;23.482;2022-09-28T10:01:51;92533.97;;;31.88;35.97
11806;BME280;5960;42.602;23.482;2022-09-28T10:04:22;92525.22;;;31.54;29.48
11806;BME280;5960;42.602;23.482;2022-09-28T10:06:56;92518.00;;;31.21;28.10
11806;BME280;5960;42.602;23.482;2022-09-28T10:09:27;92523.84;;;31.48;32.81
11806;BME280;5960;42.602;23.482;2022-09-28T10:11:56;92519.69;;;31.13;32.35
11806;BME280;5960;42.602;23.482;2022-09-28T10:14:23;92517.31;;;30.99;32.19
11806;BME280;5960;42.602;23.482;2022-09-28T10:16:51;92524.66;;;31.36;34.84
11806;BME280;5960;42.602;23.482;2022-09-28T10:19:23;92535.56;;;31.89;34.09
11806;BME280;5960;42.602;23.482;2022-09-28T10:21:51;92518.16;;;31.94;32.30
11806;BME280;5960;42.602;23.482;2022-09-28T10:24:27;92509.13;;;30.87;28.60
11806;BME280;5960;42.602;23.482;2022-09-28T10:26:58;92516.44;;;30.37;28.40
11806;BME280;5960;42.602;23.482;2022-09-28T10:29:33;92509.38;;;28.96;30.70
11806;BME280;5960;42.602;23.482;2022-09-28T10:32:16;92508.34;;;29.61;30.34
11806;BME280;5960;42.602;23.482;2022-09-28T10:34:43;92510.97;;;29.48;29.74
11806;BME280;5960;42.602;23.482;2022-09-28T10:37:10;92508.06;;;29.02;30.35
11806;BME280;5960;42.602;23.482;2022-09-28T10:39:45;92507.47;;;28.58;31.49
11806;BME280;5960;42.602;23.482;2022-09-28T10:42:18;92499.16;;;28.24;31.91
11806;BME280;5960;42.602;23.482;2022-09-28T10:44:51;92505.47;;;28.85;31.04
11806;BME280;5960;42.602;23.482;2022-09-28T10:47:22;92496.16;;;28.94;32.17
11806;BME280;5960;42.602;23.482;2022-09-28T10:49:50;92490.84;;;28.77;32.45
11806;BME280;5960;42.602;23.482;2022-09-28T10:52:38;92502.50;;;28.21;34.12
11806;BME280;5960;42.602;23.482;2022-09-28T10:55:28;92489.88;;;29.54;34.17
11806;BME280;5960;42.602;23.482;2022-09-28T10:57:57;92481.97;;;30.28;30.58
11806;BME280;5960;42.602;23.482;2022-09-28T11:00:32;92481.91;;;31.12;32.23
11806;BME280;5960;42.602;23.482;2022-09-28T11:03:00;92483.94;;;31.40;30.26
11806;BME280;5960;42.602;23.482;2022-09-28T11:05:28;92471.47;;;31.79;31.37
11806;BME280;5960;42.602;23.482;2022-09-28T11:07:55;92471.41;;;32.36;27.92
11806;BME280;5960;42.602;23.482;2022-09-28T11:10:27;92475.22;;;32.03;26.68
11806;BME280;5960;42.602;23.482;2022-09-28T11:12:55;92469.59;;;30.77;28.81
11806;BME280;5960;42.602;23.482;2022-09-28T11:15:26;92458.22;;;30.25;31.12
11806;BME280;5960;42.602;23.482;2022-09-28T11:17:53;92467.41;;;30.45;30.32
11806;BME280;5960;42.602;23.482;2022-09-28T11:20:32;92465.41;;;30.80;30.73
11806;BME280;5960;42.602;23.482;2022-09-28T11:23:17;92464.09;;;30.15;31.62
11806;BME280;5960;42.602;23.482;2022-09-28T11:25:56;92469.59;;;29.30;33.22
11806;BME280;5960;42.602;23.482;2022-09-28T11:28:29;92462.19;;;29.39;35.02
11806;BME280;5960;42.602;23.482;2022-09-28T11:30:57;92456.13;;;29.97;32.47
11806;BME280;5960;42.602;23.482;2022-09-28T11:33:28;92452.91;;;30.29;31.41
11806;BME280;5960;42.602;23.482;2022-09-28T11:38:50;92444.25;;;31.67;31.44
11806;BME280;5960;42.602;23.482;2022-09-28T11:41:32;92444.25;;;32.40;29.72
11806;BME280;5960;42.602;23.482;2022-09-28T11:44:31;92450.13;;;33.42;28.47
11806;BME280;5960;42.602;23.482;2022-09-28T11:47:14;92455.00;;;34.11;28.16
11806;BME280;5960;42.602;23.482;2022-09-28T11:49:50;92455.19;;;34.22;27.02
11806;BME280;5960;42.602;23.482;2022-09-28T11:52:23;92457.44;;;33.97;26.41
11806;BME280;5960;42.602;23.482;2022-09-28T11:54:53;92458.31;;;33.26;26.36
11806;BME280;5960;42.602;23.482;2022-09-28T11:57:27;92466.69;;;32.33;26.89
11806;BME280;5960;42.602;23.482;2022-09-28T11:59:58;92464.81;;;32.37;28.52
11806;BME280;5960;42.602;23.482;2022-09-28T12:02:32;92455.44;;;32.51;28.50
11806;BME280;5960;42.602;23.482;2022-09-28T12:05:10;92453.22;;;32.56;27.17
11806;BME280;5960;42.602;23.482;2022-09-28T12:07:42;92460.44;;;32.49;28.44
11806;BME280;5960;42.602;23.482;2022-09-28T12:10:15;92453.38;;;32.80;29.01
11806;BME280;5960;42.602;23.482;2022-09-28T12:12:50;92451.41;;;33.12;26.78
11806;BME280;5960;42.602;23.482;2022-09-28T12:15:22;92451.41;;;33.68;25.91
11806;BME280;5960;42.602;23.482;2022-09-28T12:17:53;92443.94;;;34.04;27.20
11806;BME280;5960;42.602;23.482;2022-09-28T12:20:26;92433.56;;;34.13;27.06
11806;BME280;5960;42.602;23.482;2022-09-28T12:23:00;92428.63;;;34.23;25.91
11806;BME280;5960;42.602;23.482;2022-09-28T12:25:38;92441.72;;;33.51;25.89
11806;BME280;5960;42.602;23.482;2022-09-28T12:28:15;92431.34;;;33.99;25.43
11806;BME280;5960;42.602;23.482;2022-09-28T12:30:44;92442.84;;;33.50;25.74
11806;BME280;5960;42.602;23.482;2022-09-28T12:33:13;92448.00;;;32.99;25.86
11806;BME280;5960;42.602;23.482;2022-09-28T12:35:57;92437.38;;;30.54;29.01
11806;BME280;5960;42.602;23.482;2022-09-28T12:38:37;92442.91;;;29.75;31.55
11806;BME280;5960;42.602;23.482;2022-09-28T12:41:18;92446.69;;;29.19;31.57
11806;BME280;5960;42.602;23.482;2022-09-28T12:43:58;92438.00;;;28.14;33.09
11806;BME280;5960;42.602;23.482;2022-09-28T12:49:33;92439.25;;;26.50;34.79
11806;BME280;5960;42.602;23.482;2022-09-28T12:52:16;92442.78;;;25.87;35.38
11806;BME280;5960;42.602;23.482;2022-09-28T12:57:55;92441.84;;;25.60;36.81
11806;BME280;5960;42.602;23.482;2022-09-28T13:00:25;92442.97;;;25.22;37.21
11806;BME280;5960;42.602;23.482;2022-09-28T13:03:30;92434.00;;;25.50;37.55
11806;BME280;5960;42.602;23.482;2022-09-28T13:09:19;92448.78;;;25.52;38.06
11806;BME280;5960;42.602;23.482;2022-09-28T13:12:13;92451.22;;;25.63;37.97
11806;BME280;5960;42.602;23.482;2022-09-28T13:15:24;92445.59;;;25.82;38.05
11806;BME280;5960;42.602;23.482;2022-09-28T13:18:00;92452.13;;;25.81;38.56
11806;BME280;5960;42.602;23.482;2022-09-28T13:20:48;92458.47;;;25.53;38.10
11806;BME280;5960;42.602;23.482;2022-09-28T13:23:20;92458.63;;;25.57;38.04
11806;BME280;5960;42.602;23.482;2022-09-28T13:25:52;92471.44;;;25.51;38.41
11806;BME280;5960;42.602;23.482;2022-09-28T13:28:22;92459.78;;;25.19;37.90
11806;BME280;5960;42.602;23.482;2022-09-28T13:30:52;92454.59;;;25.09;38.42
11806;BME280;5960;42.602;23.482;2022-09-28T13:33:27;92454.88;;;24.85;38.48
11806;BME280;5960;42.602;23.482;2022-09-28T13:35:55;92453.78;;;24.86;39.23
11806;BME280;5960;42.602;23.482;2022-09-28T13:41:20;92441.03;;;25.14;38.37
11806;BME280;5960;42.602;23.482;2022-09-28T13:44:04;92443.09;;;24.94;37.44